sensor_id;sensor_type;location;lat;lon;timestamp;P1;durP1;ratioP1;P2;durP2;ratioP2
20344;SDS011;10330;48.816;9.278;2023-04-10T00:00:29;10.10;;;6.63;;
20344;SDS011;10330;48.816;9.278;2023-04-10T00:03:05;10.70;;;6.47;;
20344;SDS011;10330;48.816;9.278;2023-04-10T00:05:37;11.32;;;6.90;;
20344;SDS011;10330;48.816;9.278;2023-04-10T00:08:09;13.10;;;7.38;;
20344;SDS011;10330;48.816;9.278;2023-04-10T00:10:38;11.63;;;6.88;;
20344;SDS011;10330;48.816;9.278;2023-04-10T00:13:14;13.32;;;6.15;;
20344;SDS011;10330;48.816;9.278;2023-04-10T00:15:41;12.85;;;6.90;;
20344;SDS011;10330;48.816;9.278;2023-04-10T00:18:11;11.70;;;6.63;;
20344;SDS011;10330;48.816;9.278;2023-04-10T00:20:37;10.75;;;6.82;;
20344;SDS011;10330;48.816;9.278;2023-04-10T00:23:15;13.00;;;7.95;;
20344;SDS011;10330;48.816;9.278;2023-04-10T00:25:46;16.70;;;7.60;;
20344;SDS011;10330;48.816;9.278;2023-04-10T00:31:03;15.80;;;8.25;;
20344;SDS011;10330;48.816;9.278;2023-04-10T00:33:30;12.55;;;7.40;;
20344;SDS011;10330;48.816;9.278;2023-04-10T00:35:59;12.50;;;7.38;;
20344;SDS011;10330;48.816;9.278;2023-04-10T00:38:29;12.38;;;7.28;;
20344;SDS011;10330;48.816;9.278;2023-04-10T00:40:55;15.05;;;6.65;;
20344;SDS011;10330;48.816;9.278;2023-04-10T00:44:09;14.68;;;7.43;;
20344;SDS011;10330;48.816;9.278;2023-04-10T00:49:59;13.25;;;7.15;;
20344;SDS011;10330;48.816;9.278;2023-04-10T00:53:26;12.32;;;7.30;;
20344;SDS011;10330;48.816;9.278;2023-04-10T00:56:02;10.38;;;6.72;;
20344;SDS011;10330;48.816;9.278;2023-04-10T00:58:47;15.95;;;7.72;;
20344;SDS011;10330;48.816;9.278;2023-04-10T01:01:44;11.98;;;6.57;;
20344;SDS011;10330;48.816;9.278;2023-04-10T01:04:20;13.43;;;8.18;;
20344;SDS011;10330;48.816;9.278;2023-04-10T01:16:55;15.50;;;7.82;;
20344;SDS011;10330;48.816;9.278;2023-04-10T01:26:30;12.10;;;7.30;;
20344;SDS011;10330;48.816;9.278;2023-04-10T01:31:35;13.93;;;7.75;;
20344;SDS011;10330;48.816;9.278;2023-04-10T01:41:12;14.30;;;8.63;;
20344;SDS011;10330;48.816;9.278;2023-04-10T01:43:43;12.88;;;7.45;;
20344;SDS011;10330;48.816;9.278;2023-04-10T01:46:47;10.57;;;6.90;;
20344;SDS011;10330;48.816;9.278;2023-04-10T01:49:26;12.32;;;6.72;;
20344;SDS011;10330;48.816;9.278;2023-04-10T01:52:31;16.75;;;8.52;;
20344;SDS011;10330;48.816;9.278;2023-04-10T01:55:22;12.95;;;7.07;;
20344;SDS011;10330;48.816;9.278;2023-04-10T01:57:57;14.90;;;7.40;;
20344;SDS011;10330;48.816;9.278;2023-04-10T02:00:28;11.57;;;7.15;;
20344;SDS011;10330;48.816;9.278;2023-04-10T02:02:57;13.68;;;6.85;;
20344;SDS011;10330;48.816;9.278;2023-04-10T02:06:26;13.57;;;6.93;;
20344;SDS011;10330;48.816;9.278;2023-04-10T02:09:15;11.48;;;6.88;;
20344;SDS011;10330;48.816;9.278;2023-04-10T02:12:06;13.30;;;6.95;;
20344;SDS011;10330;48.816;9.278;2023-04-10T02:14:45;12.10;;;6.53;;
20344;SDS011;10330;48.816;9.278;2023-04-10T02:20:58;12.88;;;7.53;;
20344;SDS011;10330;48.816;9.278;2023-04-10T02:23:38;14.50;;;7.35;;
20344;SDS011;10330;48.816;9.278;2023-04-10T02:26:51;13.60;;;7.53;;
20344;SDS011;10330;48.816;9.278;2023-04-10T02:29:24;13.38;;;7.65;;
20344;SDS011;10330;48.816;9.278;2023-04-10T02:32:02;16.75;;;8.05;;
20344;SDS011;10330;48.816;9.278;2023-04-10T02:35:00;14.10;;;7.35;;
20344;SDS011;10330;48.816;9.278;2023-04-10T02:37:29;13.02;;;6.72;;
20344;SDS011;10330;48.816;9.278;2023-04-10T02:39:58;18.33;;;8.18;;
20344;SDS011;10330;48.816;9.278;2023-04-10T02:42:26;14.20;;;7.93;;
20344;SDS011;10330;48.816;9.278;2023-04-10T02:44:59;16.35;;;9.07;;
20344;SDS011;10330;48.816;9.278;2023-04-10T02:47:34;14.52;;;7.50;;
20344;SDS011;10330;48.816;9.278;2023-04-10T02:50:04;14.43;;;7.80;;
20344;SDS011;10330;48.816;9.278;2023-04-10T02:53:22;22.15;;;7.35;;
20344;SDS011;10330;48.816;9.278;2023-04-10T02:56:00;11.60;;;7.03;;
20344;SDS011;10330;48.816;9.278;2023-04-10T02:58:27;10.15;;;6.63;;
20344;SDS011;10330;48.816;9.278;2023-04-10T03:01:00;13.25;;;7.07;;
20344;SDS011;10330;48.816;9.278;2023-04-10T03:03:36;13.15;;;6.95;;
20344;SDS011;10330;48.816;9.278;2023-04-10T03:06:03;10.18;;;6.55;;
20344;SDS011;10330;48.816;9.278;2023-04-10T03:08:50;13.70;;;7.20;;
20344;SDS011;10330;48.816;9.278;2023-04-10T03:11:19;10.93;;;7.32;;
20344;SDS011;10330;48.816;9.278;2023-04-10T03:13:48;14.43;;;7.30;;
20344;SDS011;10330;48.816;9.278;2023-04-10T03:16:22;11.02;;;6.40;;
20344;SDS011;10330;48.816;9.278;2023-04-10T03:21:59;13.20;;;7.18;;
20344;SDS011;10330;48.816;9.278;2023-04-10T03:25:51;10.70;;;6.30;;
20344;SDS011;10330;48.816;9.278;2023-04-10T03:50:22;10.95;;;6.07;;
20344;SDS011;10330;48.816;9.278;2023-04-10T03:56:59;11.25;;;7.10;;
20344;SDS011;10330;48.816;9.278;2023-04-10T04:06:46;11.38;;;6.28;;
20344;SDS011;10330;48.816;9.278;2023-04-10T04:17:40;15.07;;;7.47;;
20344;SDS011;10330;48.816;9.278;2023-04-10T04:24:37;12.63;;;6.95;;
20344;SDS011;10330;48.816;9.278;2023-04-10T04:27:19;13.95;;;7.07;;
20344;SDS011;10330;48.816;9.278;2023-04-10T04:41:21;13.70;;;7.07;;
20344;SDS011;10330;48.816;9.278;2023-04-10T04:44:30;12.80;;;7.13;;
20344;SDS011;10330;48.816;9.278;2023-04-10T04:46:57;12.48;;;7.38;;
20344;SDS011;10330;48.816;9.278;2023-04-10T04:49:47;14.80;;;7.28;;
20344;SDS011;10330;48.816;9.278;2023-04-10T04:53:10;11.68;;;6.20;;
20344;SDS011;10330;48.816;9.278;2023-04-10T04:56:06;9.15;;;5.93;;
20344;SDS011;10330;48.816;9.278;2023-04-10T04:59:37;9.63;;;6.13;;
20344;SDS011;10330;48.816;9.278;2023-04-10T05:06:46;14.00;;;6.28;;
20344;SDS011;10330;48.816;9.278;2023-04-10T05:09:39;11.35;;;6.10;;
20344;SDS011;10330;48.816;9.278;2023-04-10T05:12:44;11.80;;;6.55;;
20344;SDS011;10330;48.816;9.278;2023-04-10T05:15:37;11.25;;;6.88;;
20344;SDS011;10330;48.816;9.278;2023-04-10T05:18:36;10.48;;;6.38;;
20344;SDS011;10330;48.816;9.278;2023-04-10T05:21:42;12.07;;;7.43;;
20344;SDS011;10330;48.816;9.278;2023-04-10T05:24:36;8.85;;;6.40;;
20344;SDS011;10330;48.816;9.278;2023-04-10T05:27:21;11.55;;;6.10;;
20344;SDS011;10330;48.816;9.278;2023-04-10T05:30:25;11.20;;;6.45;;
20344;SDS011;10330;48.816;9.278;2023-04-10T05:33:12;10.23;;;6.20;;
20344;SDS011;10330;48.816;9.278;2023-04-10T05:35:57;17.08;;;6.63;;
20344;SDS011;10330;48.816;9.278;2023-04-10T05:38:59;13.55;;;7.15;;
20344;SDS011;10330;48.816;9.278;2023-04-10T05:41:44;9.68;;;5.75;;
20344;SDS011;10330;48.816;9.278;2023-04-10T05:44:30;8.73;;;5.65;;
20344;SDS011;10330;48.816;9.278;2023-04-10T05:47:26;10.38;;;6.32;;
20344;SDS011;10330;48.816;9.278;2023-04-10T05:50:40;13.00;;;6.70;;
20344;SDS011;10330;48.816;9.278;2023-04-10T05:53:41;11.60;;;6.53;;
20344;SDS011;10330;48.816;9.278;2023-04-10T05:56:29;9.48;;;6.22;;
20344;SDS011;10330;48.816;9.278;2023-04-10T05:59:38;11.95;;;6.57;;
20344;SDS011;10330;48.816;9.278;2023-04-10T06:02:26;10.18;;;5.88;;
20344;SDS011;10330;48.816;9.278;2023-04-10T06:09:25;10.80;;;6.68;;
20344;SDS011;10330;48.816;9.278;2023-04-10T06:11:53;8.40;;;5.60;;
20344;SDS011;10330;48.816;9.278;2023-04-10T06:14:51;10.73;;;6.10;;
20344;SDS011;10330;48.816;9.278;2023-04-10T06:17:21;11.07;;;6.45;;
20344;SDS011;10330;48.816;9.278;2023-04-10T06:19:56;10.05;;;6.20;;
20344;SDS011;10330;48.816;9.278;2023-04-10T06:22:29;11.68;;;6.40;;
20344;SDS011;10330;48.816;9.278;2023-04-10T06:24:57;9.20;;;6.35;;
20344;SDS011;10330;48.816;9.278;2023-04-10T06:27:23;10.82;;;6.35;;
20344;SDS011;10330;48.816;9.278;2023-04-10T06:29:50;8.57;;;6.45;;
20344;SDS011;10330;48.816;9.278;2023-04-10T06:32:20;11.73;;;7.18;;
20344;SDS011;10330;48.816;9.278;2023-04-10T06:34:50;7.57;;;5.35;;
20344;SDS011;10330;48.816;9.278;2023-04-10T06:37:28;8.40;;;5.75;;
20344;SDS011;10330;48.816;9.278;2023-04-10T06:40:05;9.55;;;5.95;;
20344;SDS011;10330;48.816;9.278;2023-04-10T06:42:38;8.98;;;6.13;;
20344;SDS011;10330;48.816;9.278;2023-04-10T06:45:13;9.15;;;6.05;;
20344;SDS011;10330;48.816;9.278;2023-04-10T06:47:40;10.10;;;6.13;;
20344;SDS011;10330;48.816;9.278;2023-04-10T06:50:09;10.32;;;6.45;;
20344;SDS011;10330;48.816;9.278;2023-04-10T06:52:46;11.68;;;6.43;;
20344;SDS011;10330;48.816;9.278;2023-04-10T06:55:29;11.85;;;6.68;;
20344;SDS011;10330;48.816;9.278;2023-04-10T06:57:59;13.43;;;6.45;;
20344;SDS011;10330;48.816;9.278;2023-04-10T07:00:36;10.55;;;6.28;;
20344;SDS011;10330;48.816;9.278;2023-04-10T07:03:03;11.40;;;6.10;;
20344;SDS011;10330;48.816;9.278;2023-04-10T07:05:30;8.60;;;6.00;;
20344;SDS011;10330;48.816;9.278;2023-04-10T07:08:02;11.55;;;6.82;;
20344;SDS011;10330;48.816;9.278;2023-04-10T07:10:37;11.05;;;6.40;;
20344;SDS011;10330;48.816;9.278;2023-04-10T07:13:11;8.90;;;5.90;;
20344;SDS011;10330;48.816;9.278;2023-04-10T07:15:50;11.40;;;6.90;;
20344;SDS011;10330;48.816;9.278;2023-04-10T07:18:19;10.40;;;6.68;;
20344;SDS011;10330;48.816;9.278;2023-04-10T07:20:46;9.60;;;6.07;;
20344;SDS011;10330;48.816;9.278;2023-04-10T07:24:04;13.05;;;5.65;;
20344;SDS011;10330;48.816;9.278;2023-04-10T07:26:26;12.45;;;7.30;;
20344;SDS011;10330;48.816;9.278;2023-04-10T07:55:39;6.97;;;4.10;;
20344;SDS011;10330;48.816;9.278;2023-04-10T07:58:29;6.63;;;4.45;;
20344;SDS011;10330;48.816;9.278;2023-04-10T08:01:11;5.30;;;3.97;;
20344;SDS011;10330;48.816;9.278;2023-04-10T08:11:20;5.22;;;3.55;;
20344;SDS011;10330;48.816;9.278;2023-04-10T08:14:01;5.35;;;3.90;;
20344;SDS011;10330;48.816;9.278;2023-04-10T08:17:09;3.67;;;3.15;;
20344;SDS011;10330;48.816;9.278;2023-04-10T08:19:49;3.40;;;3.10;;
20344;SDS011;10330;48.816;9.278;2023-04-10T08:23:22;5.03;;;3.25;;
20344;SDS011;10330;48.816;9.278;2023-04-10T08:25:55;5.05;;;3.72;;
20344;SDS011;10330;48.816;9.278;2023-04-10T08:28:21;4.57;;;3.35;;
20344;SDS011;10330;48.816;9.278;2023-04-10T08:30:53;6.40;;;4.25;;
20344;SDS011;10330;48.816;9.278;2023-04-10T08:41:25;4.40;;;3.58;;
20344;SDS011;10330;48.816;9.278;2023-04-10T08:47:56;3.80;;;3.50;;
20344;SDS011;10330;48.816;9.278;2023-04-10T08:50:26;3.50;;;3.20;;
20344;SDS011;10330;48.816;9.278;2023-04-10T08:58:41;3.42;;;3.13;;
20344;SDS011;10330;48.816;9.278;2023-04-10T09:01:29;4.70;;;2.92;;
20344;SDS011;10330;48.816;9.278;2023-04-10T09:04:02;7.07;;;5.05;;
20344;SDS011;10330;48.816;9.278;2023-04-10T09:06:41;3.15;;;2.85;;
20344;SDS011;10330;48.816;9.278;2023-04-10T09:09:22;4.85;;;3.53;;
20344;SDS011;10330;48.816;9.278;2023-04-10T09:14:46;3.55;;;3.17;;
20344;SDS011;10330;48.816;9.278;2023-04-10T09:17:23;3.05;;;2.75;;
20344;SDS011;10330;48.816;9.278;2023-04-10T09:23:59;4.35;;;3.35;;
20344;SDS011;10330;48.816;9.278;2023-04-10T09:26:26;2.92;;;2.30;;
20344;SDS011;10330;48.816;9.278;2023-04-10T09:35:11;2.75;;;2.50;;
20344;SDS011;10330;48.816;9.278;2023-04-10T09:37:41;2.60;;;2.40;;
20344;SDS011;10330;48.816;9.278;2023-04-10T09:40:23;3.15;;;2.22;;
20344;SDS011;10330;48.816;9.278;2023-04-10T09:42:50;6.57;;;3.60;;
20344;SDS011;10330;48.816;9.278;2023-04-10T09:45:17;18.42;;;9.00;;
20344;SDS011;10330;48.816;9.278;2023-04-10T09:48:03;4.75;;;3.97;;
20344;SDS011;10330;48.816;9.278;2023-04-10T09:57:12;3.90;;;2.80;;
20344;SDS011;10330;48.816;9.278;2023-04-10T10:00:13;2.67;;;2.42;;
20344;SDS011;10330;48.816;9.278;2023-04-10T10:02:45;3.28;;;2.55;;
20344;SDS011;10330;48.816;9.278;2023-04-10T10:05:13;2.58;;;2.38;;
20344;SDS011;10330;48.816;9.278;2023-04-10T10:07:40;2.63;;;2.40;;
20344;SDS011;10330;48.816;9.278;2023-04-10T10:10:07;3.08;;;2.78;;
20344;SDS011;10330;48.816;9.278;2023-04-10T10:12:43;2.13;;;2.03;;
20344;SDS011;10330;48.816;9.278;2023-04-10T10:15:19;2.33;;;2.22;;
20344;SDS011;10330;48.816;9.278;2023-04-10T10:20:34;2.35;;;2.25;;
20344;SDS011;10330;48.816;9.278;2023-04-10T10:23:05;2.55;;;2.35;;
20344;SDS011;10330;48.816;9.278;2023-04-10T10:25:33;2.10;;;2.00;;
20344;SDS011;10330;48.816;9.278;2023-04-10T10:28:01;2.40;;;1.95;;
20344;SDS011;10330;48.816;9.278;2023-04-10T10:30:32;2.33;;;2.20;;
20344;SDS011;10330;48.816;9.278;2023-04-10T10:33:06;1.98;;;1.88;;
20344;SDS011;10330;48.816;9.278;2023-04-10T10:35:35;2.00;;;1.90;;
20344;SDS011;10330;48.816;9.278;2023-04-10T10:38:02;2.22;;;2.13;;
20344;SDS011;10330;48.816;9.278;2023-04-10T10:43:13;3.35;;;3.05;;
20344;SDS011;10330;48.816;9.278;2023-04-10T10:46:03;3.40;;;2.50;;
20344;SDS011;10330;48.816;9.278;2023-04-10T10:48:35;2.63;;;2.35;;
20344;SDS011;10330;48.816;9.278;2023-04-10T10:51:09;1.65;;;1.63;;
20344;SDS011;10330;48.816;9.278;2023-04-10T10:54:26;2.00;;;1.90;;
20344;SDS011;10330;48.816;9.278;2023-04-10T10:56:56;2.15;;;1.95;;
20344;SDS011;10330;48.816;9.278;2023-04-10T11:02:25;1.70;;;1.63;;
20344;SDS011;10330;48.816;9.278;2023-04-10T11:04:51;2.20;;;2.00;;
20344;SDS011;10330;48.816;9.278;2023-04-10T11:07:17;1.65;;;1.50;;
20344;SDS011;10330;48.816;9.278;2023-04-10T11:12:21;1.65;;;1.50;;
20344;SDS011;10330;48.816;9.278;2023-04-10T11:15:06;1.75;;;1.65;;
20344;SDS011;10330;48.816;9.278;2023-04-10T11:17:46;2.42;;;2.05;;
20344;SDS011;10330;48.816;9.278;2023-04-10T11:20:15;1.73;;;1.63;;
20344;SDS011;10330;48.816;9.278;2023-04-10T11:25:50;1.60;;;1.50;;
20344;SDS011;10330;48.816;9.278;2023-04-10T11:28:36;1.70;;;1.60;;
20344;SDS011;10330;48.816;9.278;2023-04-10T11:33:40;1.52;;;1.42;;
20344;SDS011;10330;48.816;9.278;2023-04-10T11:36:06;1.65;;;1.55;;
20344;SDS011;10330;48.816;9.278;2023-04-10T11:38:33;1.67;;;1.58;;
20344;SDS011;10330;48.816;9.278;2023-04-10T11:41:01;2.60;;;1.38;;
20344;SDS011;10330;48.816;9.278;2023-04-10T11:43:29;1.60;;;1.50;;
20344;SDS011;10330;48.816;9.278;2023-04-10T11:46:03;3.25;;;2.80;;
20344;SDS011;10330;48.816;9.278;2023-04-10T11:48:32;2.53;;;1.60;;
20344;SDS011;10330;48.816;9.278;2023-04-10T11:51:05;2.70;;;2.42;;
20344;SDS011;10330;48.816;9.278;2023-04-10T11:53:33;27.88;;;12.75;;
20344;SDS011;10330;48.816;9.278;2023-04-10T11:55:59;7.95;;;4.38;;
20344;SDS011;10330;48.816;9.278;2023-04-10T11:58:26;1.52;;;1.42;;
20344;SDS011;10330;48.816;9.278;2023-04-10T12:00:58;1.52;;;1.42;;
20344;SDS011;10330;48.816;9.278;2023-04-10T12:03:30;0.90;;;0.90;;
20344;SDS011;10330;48.816;9.278;2023-04-10T12:06:01;1.55;;;1.45;;
20344;SDS011;10330;48.816;9.278;2023-04-10T12:08:38;1.08;;;1.08;;
20344;SDS011;10330;48.816;9.278;2023-04-10T12:11:07;1.40;;;1.30;;
20344;SDS011;10330;48.816;9.278;2023-04-10T12:13:34;5.15;;;2.75;;
20344;SDS011;10330;48.816;9.278;2023-04-10T12:16:03;2.33;;;1.90;;
20344;SDS011;10330;48.816;9.278;2023-04-10T12:18:31;1.60;;;1.38;;
20344;SDS011;10330;48.816;9.278;2023-04-10T12:20:58;3.25;;;2.35;;
20344;SDS011;10330;48.816;9.278;2023-04-10T12:23:26;1.15;;;1.15;;
20344;SDS011;10330;48.816;9.278;2023-04-10T12:25:55;0.80;;;0.80;;
20344;SDS011;10330;48.816;9.278;2023-04-10T12:28:41;2.45;;;1.67;;
20344;SDS011;10330;48.816;9.278;2023-04-10T12:31:15;0.90;;;0.90;;
20344;SDS011;10330;48.816;9.278;2023-04-10T12:33:45;3.65;;;2.95;;
20344;SDS011;10330;48.816;9.278;2023-04-10T12:36:21;0.70;;;0.70;;
20344;SDS011;10330;48.816;9.278;2023-04-10T12:38:48;0.70;;;0.70;;
20344;SDS011;10330;48.816;9.278;2023-04-10T12:41:19;0.70;;;0.70;;
20344;SDS011;10330;48.816;9.278;2023-04-10T12:43:48;7.50;;;4.32;;
20344;SDS011;10330;48.816;9.278;2023-04-10T12:46:23;1.33;;;1.23;;
20344;SDS011;10330;48.816;9.278;2023-04-10T12:48:51;0.82;;;0.82;;
20344;SDS011;10330;48.816;9.278;2023-04-10T12:51:17;1.00;;;1.00;;
20344;SDS011;10330;48.816;9.278;2023-04-10T12:53:44;1.15;;;0.77;;
20344;SDS011;10330;48.816;9.278;2023-04-10T12:56:11;0.93;;;0.93;;
20344;SDS011;10330;48.816;9.278;2023-04-10T12:58:38;0.82;;;0.82;;
20344;SDS011;10330;48.816;9.278;2023-04-10T13:01:07;0.88;;;0.88;;
20344;SDS011;10330;48.816;9.278;2023-04-10T13:03:37;0.70;;;0.70;;
20344;SDS011;10330;48.816;9.278;2023-04-10T13:06:04;0.82;;;0.82;;
20344;SDS011;10330;48.816;9.278;2023-04-10T13:08:31;1.00;;;1.00;;
20344;SDS011;10330;48.816;9.278;2023-04-10T13:10:58;0.70;;;0.70;;
20344;SDS011;10330;48.816;9.278;2023-04-10T13:13:30;0.85;;;0.85;;
20344;SDS011;10330;48.816;9.278;2023-04-10T13:16:00;1.17;;;1.17;;
20344;SDS011;10330;48.816;9.278;2023-04-10T13:18:26;0.90;;;0.90;;
20344;SDS011;10330;48.816;9.278;2023-04-10T13:20:52;1.83;;;1.42;;
20344;SDS011;10330;48.816;9.278;2023-04-10T13:23:18;0.80;;;0.80;;
20344;SDS011;10330;48.816;9.278;2023-04-10T13:25:44;0.90;;;0.90;;
20344;SDS011;10330;48.816;9.278;2023-04-10T13:28:11;1.10;;;1.10;;
20344;SDS011;10330;48.816;9.278;2023-04-10T13:30:38;1.15;;;1.15;;
20344;SDS011;10330;48.816;9.278;2023-04-10T13:33:06;0.80;;;0.80;;
20344;SDS011;10330;48.816;9.278;2023-04-10T13:35:33;0.90;;;0.90;;
20344;SDS011;10330;48.816;9.278;2023-04-10T13:37:59;1.00;;;1.00;;
20344;SDS011;10330;48.816;9.278;2023-04-10T13:40:26;1.50;;;1.40;;
20344;SDS011;10330;48.816;9.278;2023-04-10T13:42:52;0.85;;;0.85;;
20344;SDS011;10330;48.816;9.278;2023-04-10T13:45:18;1.25;;;1.15;;
20344;SDS011;10330;48.816;9.278;2023-04-10T13:47:45;0.93;;;0.85;;
20344;SDS011;10330;48.816;9.278;2023-04-10T13:50:12;0.93;;;0.93;;
20344;SDS011;10330;48.816;9.278;2023-04-10T13:52:38;1.15;;;1.02;;
20344;SDS011;10330;48.816;9.278;2023-04-10T13:55:04;0.88;;;0.88;;
20344;SDS011;10330;48.816;9.278;2023-04-10T13:57:31;1.55;;;1.45;;
20344;SDS011;10330;48.816;9.278;2023-04-10T13:59:58;1.10;;;1.10;;
20344;SDS011;10330;48.816;9.278;2023-04-10T14:02:25;1.58;;;1.40;;
20344;SDS011;10330;48.816;9.278;2023-04-10T14:04:51;1.10;;;1.10;;
20344;SDS011;10330;48.816;9.278;2023-04-10T14:07:18;1.13;;;1.13;;
20344;SDS011;10330;48.816;9.278;2023-04-10T14:09:44;0.98;;;0.98;;
20344;SDS011;10330;48.816;9.278;2023-04-10T14:12:11;1.40;;;1.30;;
20344;SDS011;10330;48.816;9.278;2023-04-10T14:14:41;0.95;;;0.95;;
20344;SDS011;10330;48.816;9.278;2023-04-10T14:17:08;1.10;;;1.10;;
20344;SDS011;10330;48.816;9.278;2023-04-10T14:19:34;1.25;;;1.25;;
20344;SDS011;10330;48.816;9.278;2023-04-10T14:22:01;1.10;;;1.00;;
20344;SDS011;10330;48.816;9.278;2023-04-10T14:24:27;1.00;;;0.98;;
20344;SDS011;10330;48.816;9.278;2023-04-10T14:26:53;1.25;;;1.25;;
20344;SDS011;10330;48.816;9.278;2023-04-10T14:29:26;1.20;;;1.10;;
20344;SDS011;10330;48.816;9.278;2023-04-10T14:31:53;1.00;;;1.00;;
20344;SDS011;10330;48.816;9.278;2023-04-10T14:34:19;1.08;;;1.08;;
20344;SDS011;10330;48.816;9.278;2023-04-10T14:36:45;1.42;;;1.30;;
20344;SDS011;10330;48.816;9.278;2023-04-10T14:39:11;1.08;;;1.00;;
20344;SDS011;10330;48.816;9.278;2023-04-10T14:41:37;0.80;;;0.80;;
20344;SDS011;10330;48.816;9.278;2023-04-10T14:44:03;2.95;;;2.75;;
20344;SDS011;10330;48.816;9.278;2023-04-10T14:46:30;7.70;;;5.53;;
20344;SDS011;10330;48.816;9.278;2023-04-10T14:48:56;1.65;;;1.55;;
20344;SDS011;10330;48.816;9.278;2023-04-10T14:51:22;1.20;;;1.20;;
20344;SDS011;10330;48.816;9.278;2023-04-10T14:53:48;1.85;;;1.75;;
20344;SDS011;10330;48.816;9.278;2023-04-10T14:56:18;2.80;;;2.08;;
20344;SDS011;10330;48.816;9.278;2023-04-10T14:58:44;1.70;;;1.60;;
20344;SDS011;10330;48.816;9.278;2023-04-10T15:01:12;1.10;;;1.02;;
20344;SDS011;10330;48.816;9.278;2023-04-10T15:03:38;1.10;;;1.10;;
20344;SDS011;10330;48.816;9.278;2023-04-10T15:06:04;2.47;;;1.23;;
20344;SDS011;10330;48.816;9.278;2023-04-10T15:08:31;1.50;;;1.40;;
20344;SDS011;10330;48.816;9.278;2023-04-10T15:10:57;1.10;;;1.10;;
20344;SDS011;10330;48.816;9.278;2023-04-10T15:13:24;0.95;;;0.95;;
20344;SDS011;10330;48.816;9.278;2023-04-10T15:15:50;1.05;;;1.05;;
20344;SDS011;10330;48.816;9.278;2023-04-10T15:18:17;0.93;;;0.93;;
20344;SDS011;10330;48.816;9.278;2023-04-10T15:20:43;2.72;;;2.53;;
20344;SDS011;10330;48.816;9.278;2023-04-10T15:23:09;1.52;;;1.42;;
20344;SDS011;10330;48.816;9.278;2023-04-10T15:25:43;1.23;;;1.15;;
20344;SDS011;10330;48.816;9.278;2023-04-10T15:28:12;1.23;;;1.23;;
20344;SDS011;10330;48.816;9.278;2023-04-10T15:30:41;2.47;;;1.40;;
20344;SDS011;10330;48.816;9.278;2023-04-10T15:33:09;0.90;;;0.90;;
20344;SDS011;10330;48.816;9.278;2023-04-10T15:35:35;2.17;;;1.25;;
20344;SDS011;10330;48.816;9.278;2023-04-10T15:38:02;1.05;;;1.05;;
20344;SDS011;10330;48.816;9.278;2023-04-10T15:40:29;2.33;;;1.38;;
20344;SDS011;10330;48.816;9.278;2023-04-10T15:42:55;1.50;;;1.40;;
20344;SDS011;10330;48.816;9.278;2023-04-10T15:45:21;1.55;;;1.45;;
20344;SDS011;10330;48.816;9.278;2023-04-10T15:47:48;1.50;;;1.40;;
20344;SDS011;10330;48.816;9.278;2023-04-10T15:50:14;1.20;;;1.20;;
20344;SDS011;10330;48.816;9.278;2023-04-10T15:52:40;1.50;;;1.42;;
20344;SDS011;10330;48.816;9.278;2023-04-10T15:55:06;2.50;;;2.13;;
20344;SDS011;10330;48.816;9.278;2023-04-10T15:57:32;2.97;;;1.90;;
20344;SDS011;10330;48.816;9.278;2023-04-10T15:59:59;1.40;;;1.35;;
20344;SDS011;10330;48.816;9.278;2023-04-10T16:02:26;0.90;;;0.90;;
20344;SDS011;10330;48.816;9.278;2023-04-10T16:04:55;1.40;;;1.40;;
20344;SDS011;10330;48.816;9.278;2023-04-10T16:10:54;8.95;;;4.35;;
20344;SDS011;10330;48.816;9.278;2023-04-10T16:16:23;3.15;;;2.35;;
20344;SDS011;10330;48.816;9.278;2023-04-10T16:19:23;6.93;;;3.10;;
20344;SDS011;10330;48.816;9.278;2023-04-10T16:22:12;6.50;;;3.75;;
20344;SDS011;10330;48.816;9.278;2023-04-10T16:44:41;1.30;;;1.30;;
20344;SDS011;10330;48.816;9.278;2023-04-10T16:56:56;1.90;;;1.80;;
20344;SDS011;10330;48.816;9.278;2023-04-10T16:59:22;7.05;;;3.63;;
20344;SDS011;10330;48.816;9.278;2023-04-10T17:01:51;6.43;;;3.03;;
20344;SDS011;10330;48.816;9.278;2023-04-10T17:04:21;34.03;;;14.23;;
20344;SDS011;10330;48.816;9.278;2023-04-10T17:06:48;16.60;;;8.55;;
20344;SDS011;10330;48.816;9.278;2023-04-10T17:09:47;3.88;;;2.30;;
20344;SDS011;10330;48.816;9.278;2023-04-10T17:12:22;1.52;;;1.42;;
20344;SDS011;10330;48.816;9.278;2023-04-10T17:15:11;1.70;;;1.58;;
20344;SDS011;10330;48.816;9.278;2023-04-10T17:18:00;2.15;;;1.80;;
20344;SDS011;10330;48.816;9.278;2023-04-10T17:28:10;1.45;;;1.35;;
20344;SDS011;10330;48.816;9.278;2023-04-10T17:30:43;1.10;;;1.10;;
20344;SDS011;10330;48.816;9.278;2023-04-10T17:34:04;2.15;;;1.88;;
20344;SDS011;10330;48.816;9.278;2023-04-10T17:36:41;4.82;;;3.33;;
20344;SDS011;10330;48.816;9.278;2023-04-10T17:45:17;1.70;;;1.60;;
20344;SDS011;10330;48.816;9.278;2023-04-10T17:51:10;2.00;;;1.85;;
20344;SDS011;10330;48.816;9.278;2023-04-10T18:00:59;1.33;;;1.33;;
20344;SDS011;10330;48.816;9.278;2023-04-10T18:03:25;3.95;;;1.30;;
20344;SDS011;10330;48.816;9.278;2023-04-10T18:10:27;1.30;;;1.20;;
20344;SDS011;10330;48.816;9.278;2023-04-10T18:13:23;6.05;;;1.75;;
20344;SDS011;10330;48.816;9.278;2023-04-10T18:15:52;1.35;;;1.33;;
20344;SDS011;10330;48.816;9.278;2023-04-10T18:18:22;1.17;;;1.10;;
20344;SDS011;10330;48.816;9.278;2023-04-10T18:20:56;1.10;;;1.10;;
20344;SDS011;10330;48.816;9.278;2023-04-10T18:23:32;1.40;;;1.30;;
20344;SDS011;10330;48.816;9.278;2023-04-10T18:26:05;3.22;;;2.78;;
20344;SDS011;10330;48.816;9.278;2023-04-10T18:28:37;1.15;;;1.15;;
20344;SDS011;10330;48.816;9.278;2023-04-10T18:31:24;7.13;;;1.60;;
20344;SDS011;10330;48.816;9.278;2023-04-10T18:38:02;3.17;;;2.03;;
20344;SDS011;10330;48.816;9.278;2023-04-10T18:40:57;6.57;;;3.35;;
20344;SDS011;10330;48.816;9.278;2023-04-10T18:43:46;3.28;;;1.63;;
20344;SDS011;10330;48.816;9.278;2023-04-10T18:46:53;1.38;;;1.05;;
20344;SDS011;10330;48.816;9.278;2023-04-10T18:50:39;1.20;;;1.20;;
20344;SDS011;10330;48.816;9.278;2023-04-10T19:10:45;1.00;;;1.00;;
20344;SDS011;10330;48.816;9.278;2023-04-10T19:13:13;1.08;;;1.08;;
20344;SDS011;10330;48.816;9.278;2023-04-10T19:16:26;3.50;;;2.75;;
20344;SDS011;10330;48.816;9.278;2023-04-10T19:18:39;2.45;;;1.80;;
20344;SDS011;10330;48.816;9.278;2023-04-10T19:21:15;1.52;;;1.42;;
20344;SDS011;10330;48.816;9.278;2023-04-10T19:34:46;5.97;;;3.35;;
20344;SDS011;10330;48.816;9.278;2023-04-10T19:37:44;2.13;;;1.63;;
20344;SDS011;10330;48.816;9.278;2023-04-10T19:43:04;3.55;;;1.35;;
20344;SDS011;10330;48.816;9.278;2023-04-10T19:45:47;1.63;;;1.52;;
20344;SDS011;10330;48.816;9.278;2023-04-10T19:48:27;1.73;;;1.63;;
20344;SDS011;10330;48.816;9.278;2023-04-10T19:54:33;1.55;;;1.45;;
20344;SDS011;10330;48.816;9.278;2023-04-10T19:58:09;4.65;;;2.60;;
20344;SDS011;10330;48.816;9.278;2023-04-10T20:00:36;9.25;;;2.92;;
20344;SDS011;10330;48.816;9.278;2023-04-10T20:03:42;2.70;;;1.95;;
20344;SDS011;10330;48.816;9.278;2023-04-10T20:06:41;1.65;;;1.55;;
20344;SDS011;10330;48.816;9.278;2023-04-10T20:09:13;2.13;;;1.60;;
20344;SDS011;10330;48.816;9.278;2023-04-10T20:11:44;3.58;;;2.13;;
20344;SDS011;10330;48.816;9.278;2023-04-10T20:14:10;1.83;;;1.63;;
20344;SDS011;10330;48.816;9.278;2023-04-10T20:16:51;2.42;;;1.77;;
20344;SDS011;10330;48.816;9.278;2023-04-10T20:19:30;1.38;;;1.27;;
20344;SDS011;10330;48.816;9.278;2023-04-10T20:21:56;4.50;;;1.50;;
20344;SDS011;10330;48.816;9.278;2023-04-10T20:25:18;1.45;;;1.33;;
20344;SDS011;10330;48.816;9.278;2023-04-10T20:28:00;2.70;;;1.60;;
20344;SDS011;10330;48.816;9.278;2023-04-10T20:30:44;1.70;;;1.60;;
20344;SDS011;10330;48.816;9.278;2023-04-10T20:33:21;1.60;;;1.50;;
20344;SDS011;10330;48.816;9.278;2023-04-10T20:36:13;1.92;;;1.83;;